sensor_id;sensor_type;location;lat;lon;timestamp;P1;P2;P0
70520;PMS5003;58442;52.716;23.560;2023-01-28T00:00:01;32;26;14
70520;PMS5003;58442;52.716;23.560;2023-01-28T00:02:03;29;27;13
70520;PMS5003;58442;52.716;23.560;2023-01-28T00:04:05;32;27;10
70520;PMS5003;58442;52.716;23.560;2023-01-28T00:06:07;36;30;14
70520;PMS5003;58442;52.716;23.560;2023-01-28T00:08:13;25;25;13
70520;PMS5003;58442;52.716;23.560;2023-01-28T00:10:16;20;20;13
70520;PMS5003;58442;52.716;23.560;2023-01-28T00:12:18;19;19;13
70520;PMS5003;58442;52.716;23.560;2023-01-28T00:14:19;34;28;14
70520;PMS5003;58442;52.716;23.560;2023-01-28T00:16:23;27;21;9
70520;PMS5003;58442;52.716;23.560;2023-01-28T00:18:32;20;20;11
70520;PMS5003;58442;52.716;23.560;2023-01-28T00:20:33;21;21;13
70520;PMS5003;58442;52.716;23.560;2023-01-28T00:22:35;20;19;11
70520;PMS5003;58442;52.716;23.560;2023-01-28T00:24:36;20;20;11
70520;PMS5003;58442;52.716;23.560;2023-01-28T00:26:48;17;16;7
70520;PMS5003;58442;52.716;23.560;2023-01-28T00:28:49;15;15;8
70520;PMS5003;58442;52.716;23.560;2023-01-28T00:30:50;26;21;11
70520;PMS5003;58442;52.716;23.560;2023-01-28T00:32:52;20;18;9
70520;PMS5003;58442;52.716;23.560;2023-01-28T00:35:02;17;16;7
70520;PMS5003;58442;52.716;23.560;2023-01-28T00:37:03;16;12;7
70520;PMS5003;58442;52.716;23.560;2023-01-28T00:39:12;21;16;8
70520;PMS5003;58442;52.716;23.560;2023-01-28T00:41:15;21;19;9
70520;PMS5003;58442;52.716;23.560;2023-01-28T00:43:29;17;16;6
70520;PMS5003;58442;52.716;23.560;2023-01-28T00:45:38;22;21;10
70520;PMS5003;58442;52.716;23.560;2023-01-28T00:47:39;15;15;8
70520;PMS5003;58442;52.716;23.560;2023-01-28T00:53:56;19;17;9
70520;PMS5003;58442;52.716;23.560;2023-01-28T00:58:06;22;16;7
70520;PMS5003;58442;52.716;23.560;2023-01-28T01:00:08;16;14;10
70520;PMS5003;58442;52.716;23.560;2023-01-28T01:02:10;19;19;9
70520;PMS5003;58442;52.716;23.560;2023-01-28T01:04:12;22;20;9
70520;PMS5003;58442;52.716;23.560;2023-01-28T01:06:14;37;20;9
70520;PMS5003;58442;52.716;23.560;2023-01-28T01:08:18;21;19;12
70520;PMS5003;58442;52.716;23.560;2023-01-28T01:10:30;19;16;12
70520;PMS5003;58442;52.716;23.560;2023-01-28T01:12:31;19;18;7
70520;PMS5003;58442;52.716;23.560;2023-01-28T01:14:33;24;22;7
70520;PMS5003;58442;52.716;23.560;2023-01-28T01:16:35;21;21;12
70520;PMS5003;58442;52.716;23.560;2023-01-28T01:18:43;16;16;9
70520;PMS5003;58442;52.716;23.560;2023-01-28T01:22:59;20;20;11
70520;PMS5003;58442;52.716;23.560;2023-01-28T01:25:04;21;18;11
70520;PMS5003;58442;52.716;23.560;2023-01-28T01:27:06;27;24;10
70520;PMS5003;58442;52.716;23.560;2023-01-28T01:29:08;22;18;9
70520;PMS5003;58442;52.716;23.560;2023-01-28T01:31:16;19;19;11
70520;PMS5003;58442;52.716;23.560;2023-01-28T01:33:24;22;19;5
70520;PMS5003;58442;52.716;23.560;2023-01-28T01:35:28;22;21;10
70520;PMS5003;58442;52.716;23.560;2023-01-28T01:37:30;20;18;11
70520;PMS5003;58442;52.716;23.560;2023-01-28T01:39:31;22;22;10
70520;PMS5003;58442;52.716;23.560;2023-01-28T01:41:35;16;15;10
70520;PMS5003;58442;52.716;23.560;2023-01-28T01:45:58;20;19;8
70520;PMS5003;58442;52.716;23.560;2023-01-28T01:52:40;17;16;8
70520;PMS5003;58442;52.716;23.560;2023-01-28T01:54:43;18;17;11
70520;PMS5003;58442;52.716;23.560;2023-01-28T01:56:59;24;19;9
70520;PMS5003;58442;52.716;23.560;2023-01-28T01:59:14;17;14;7
70520;PMS5003;58442;52.716;23.560;2023-01-28T02:01:30;27;25;14
70520;PMS5003;58442;52.716;23.560;2023-01-28T02:05:45;21;20;12
70520;PMS5003;58442;52.716;23.560;2023-01-28T02:07:51;19;18;11
70520;PMS5003;58442;52.716;23.560;2023-01-28T02:10:07;14;14;8
70520;PMS5003;58442;52.716;23.560;2023-01-28T02:12:13;18;18;10
70520;PMS5003;58442;52.716;23.560;2023-01-28T02:18:38;15;15;10
70520;PMS5003;58442;52.716;23.560;2023-01-28T02:30:02;20;19;9
70520;PMS5003;58442;52.716;23.560;2023-01-28T02:32:24;28;19;8
70520;PMS5003;58442;52.716;23.560;2023-01-28T02:37:09;22;20;10
70520;PMS5003;58442;52.716;23.560;2023-01-28T02:39:26;20;16;8
70520;PMS5003;58442;52.716;23.560;2023-01-28T02:41:33;19;17;7
70520;PMS5003;58442;52.716;23.560;2023-01-28T02:43:44;15;15;9
70520;PMS5003;58442;52.716;23.560;2023-01-28T02:45:56;17;16;8
70520;PMS5003;58442;52.716;23.560;2023-01-28T02:48:12;28;19;9
70520;PMS5003;58442;52.716;23.560;2023-01-28T02:50:16;16;16;5
70520;PMS5003;58442;52.716;23.560;2023-01-28T02:57:14;12;12;7
70520;PMS5003;58442;52.716;23.560;2023-01-28T02:59:37;16;15;8
70520;PMS5003;58442;52.716;23.560;2023-01-28T03:02:15;17;16;9
70520;PMS5003;58442;52.716;23.560;2023-01-28T03:08:58;20;17;11
70520;PMS5003;58442;52.716;23.560;2023-01-28T03:11:19;16;14;7
70520;PMS5003;58442;52.716;23.560;2023-01-28T03:13:41;17;16;8
70520;PMS5003;58442;52.716;23.560;2023-01-28T03:16:02;13;13;7
70520;PMS5003;58442;52.716;23.560;2023-01-28T03:23:16;19;18;9
70520;PMS5003;58442;52.716;23.560;2023-01-28T03:25:38;11;10;6
70520;PMS5003;58442;52.716;23.560;2023-01-28T03:30:22;12;11;9
70520;PMS5003;58442;52.716;23.560;2023-01-28T03:32:38;12;12;8
70520;PMS5003;58442;52.716;23.560;2023-01-28T03:34:54;20;19;10
70520;PMS5003;58442;52.716;23.560;2023-01-28T03:37:15;15;14;8
70520;PMS5003;58442;52.716;23.560;2023-01-28T03:43:58;15;15;9
70520;PMS5003;58442;52.716;23.560;2023-01-28T03:46:11;18;16;10
70520;PMS5003;58442;52.716;23.560;2023-01-28T03:48:12;20;20;10
70520;PMS5003;58442;52.716;23.560;2023-01-28T03:50:15;23;19;11
70520;PMS5003;58442;52.716;23.560;2023-01-28T03:52:18;22;19;12
70520;PMS5003;58442;52.716;23.560;2023-01-28T03:54:22;25;21;9
70520;PMS5003;58442;52.716;23.560;2023-01-28T03:56:25;16;16;7
70520;PMS5003;58442;52.716;23.560;2023-01-28T03:58:31;23;19;9
70520;PMS5003;58442;52.716;23.560;2023-01-28T04:00:45;23;23;10
70520;PMS5003;58442;52.716;23.560;2023-01-28T04:02:50;23;22;11
70520;PMS5003;58442;52.716;23.560;2023-01-28T04:06:59;22;21;10
70520;PMS5003;58442;52.716;23.560;2023-01-28T04:09:00;18;16;11
70520;PMS5003;58442;52.716;23.560;2023-01-28T04:11:02;20;17;10
70520;PMS5003;58442;52.716;23.560;2023-01-28T04:13:16;19;19;10
70520;PMS5003;58442;52.716;23.560;2023-01-28T04:17:36;27;18;7
70520;PMS5003;58442;52.716;23.560;2023-01-28T04:19:38;28;24;11
70520;PMS5003;58442;52.716;23.560;2023-01-28T04:21:40;20;18;10
70520;PMS5003;58442;52.716;23.560;2023-01-28T04:23:44;26;20;11
70520;PMS5003;58442;52.716;23.560;2023-01-28T04:25:45;20;20;12
70520;PMS5003;58442;52.716;23.560;2023-01-28T04:27:50;24;22;10
70520;PMS5003;58442;52.716;23.560;2023-01-28T04:29:52;15;10;5
70520;PMS5003;58442;52.716;23.560;2023-01-28T04:31:57;20;19;11
70520;PMS5003;58442;52.716;23.560;2023-01-28T04:33:59;21;19;10
70520;PMS5003;58442;52.716;23.560;2023-01-28T04:36:00;22;20;10
70520;PMS5003;58442;52.716;23.560;2023-01-28T04:38:02;17;17;10
70520;PMS5003;58442;52.716;23.560;2023-01-28T04:40:13;23;21;11
70520;PMS5003;58442;52.716;23.560;2023-01-28T04:42:18;27;23;11
70520;PMS5003;58442;52.716;23.560;2023-01-28T04:44:22;26;22;12
70520;PMS5003;58442;52.716;23.560;2023-01-28T04:46:23;33;21;10
70520;PMS5003;58442;52.716;23.560;2023-01-28T04:48:28;20;20;10
70520;PMS5003;58442;52.716;23.560;2023-01-28T04:52:38;22;22;8
70520;PMS5003;58442;52.716;23.560;2023-01-28T04:56:47;23;23;13
70520;PMS5003;58442;52.716;23.560;2023-01-28T04:58:49;23;19;11
70520;PMS5003;58442;52.716;23.560;2023-01-28T05:07:25;18;17;7
70520;PMS5003;58442;52.716;23.560;2023-01-28T05:09:29;23;22;11
70520;PMS5003;58442;52.716;23.560;2023-01-28T05:11:31;34;23;12
70520;PMS5003;58442;52.716;23.560;2023-01-28T05:13:35;29;27;15
70520;PMS5003;58442;52.716;23.560;2023-01-28T05:17:57;28;26;13
70520;PMS5003;58442;52.716;23.560;2023-01-28T05:19:59;30;29;13
70520;PMS5003;58442;52.716;23.560;2023-01-28T05:22:01;25;25;13
70520;PMS5003;58442;52.716;23.560;2023-01-28T05:24:02;31;30;15
70520;PMS5003;58442;52.716;23.560;2023-01-28T05:26:12;36;27;17
70520;PMS5003;58442;52.716;23.560;2023-01-28T05:28:14;23;22;13
70520;PMS5003;58442;52.716;23.560;2023-01-28T05:30:21;34;31;16
70520;PMS5003;58442;52.716;23.560;2023-01-28T05:32:32;33;30;15
70520;PMS5003;58442;52.716;23.560;2023-01-28T05:34:33;25;25;14
70520;PMS5003;58442;52.716;23.560;2023-01-28T05:36:37;21;21;15
70520;PMS5003;58442;52.716;23.560;2023-01-28T05:38:41;31;28;15
70520;PMS5003;58442;52.716;23.560;2023-01-28T05:40:42;25;25;16
70520;PMS5003;58442;52.716;23.560;2023-01-28T05:42:45;35;30;13
70520;PMS5003;58442;52.716;23.560;2023-01-28T05:44:46;25;24;13
70520;PMS5003;58442;52.716;23.560;2023-01-28T05:46:50;26;19;7
70520;PMS5003;58442;52.716;23.560;2023-01-28T05:49:00;30;28;15
70520;PMS5003;58442;52.716;23.560;2023-01-28T05:51:01;34;31;16
70520;PMS5003;58442;52.716;23.560;2023-01-28T05:53:06;28;27;13
70520;PMS5003;58442;52.716;23.560;2023-01-28T05:59:25;35;31;14
70520;PMS5003;58442;52.716;23.560;2023-01-28T06:01:37;37;33;20
70520;PMS5003;58442;52.716;23.560;2023-01-28T06:03:45;41;35;17
70520;PMS5003;58442;52.716;23.560;2023-01-28T06:05:47;46;36;19
70520;PMS5003;58442;52.716;23.560;2023-01-28T06:07:55;55;41;23
70520;PMS5003;58442;52.716;23.560;2023-01-28T06:12:13;46;33;13
70520;PMS5003;58442;52.716;23.560;2023-01-28T06:14:15;47;36;20
70520;PMS5003;58442;52.716;23.560;2023-01-28T06:16:17;37;33;16
70520;PMS5003;58442;52.716;23.560;2023-01-28T06:18:18;49;34;20
70520;PMS5003;58442;52.716;23.560;2023-01-28T06:20:29;44;35;20
70520;PMS5003;58442;52.716;23.560;2023-01-28T06:24:39;54;41;21
70520;PMS5003;58442;52.716;23.560;2023-01-28T06:26:41;33;29;6
70520;PMS5003;58442;52.716;23.560;2023-01-28T06:28:44;40;31;18
70520;PMS5003;58442;52.716;23.560;2023-01-28T06:30:48;39;29;13
70520;PMS5003;58442;52.716;23.560;2023-01-28T06:35:04;41;34;17
70520;PMS5003;58442;52.716;23.560;2023-01-28T06:37:06;48;37;17
70520;PMS5003;58442;52.716;23.560;2023-01-28T06:39:07;46;35;20
70520;PMS5003;58442;52.716;23.560;2023-01-28T06:41:09;40;31;15
70520;PMS5003;58442;52.716;23.560;2023-01-28T06:43:10;31;10;0
70520;PMS5003;58442;52.716;23.560;2023-01-28T06:47:24;43;35;19
70520;PMS5003;58442;52.716;23.560;2023-01-28T06:49:25;42;34;18
70520;PMS5003;58442;52.716;23.560;2023-01-28T06:51:26;37;34;17
70520;PMS5003;58442;52.716;23.560;2023-01-28T06:53:31;45;33;18
70520;PMS5003;58442;52.716;23.560;2023-01-28T06:55:37;45;34;19
70520;PMS5003;58442;52.716;23.560;2023-01-28T06:59:48;48;37;20
70520;PMS5003;58442;52.716;23.560;2023-01-28T07:02:00;49;40;22
70520;PMS5003;58442;52.716;23.560;2023-01-28T07:04:07;46;38;22
70520;PMS5003;58442;52.716;23.560;2023-01-28T07:06:08;43;35;23
70520;PMS5003;58442;52.716;23.560;2023-01-28T07:08:16;31;30;21
70520;PMS5003;58442;52.716;23.560;2023-01-28T07:10:17;45;39;21
70520;PMS5003;58442;52.716;23.560;2023-01-28T07:12:22;34;32;15
70520;PMS5003;58442;52.716;23.560;2023-01-28T07:14:24;36;31;20
70520;PMS5003;58442;52.716;23.560;2023-01-28T07:16:25;53;40;22
70520;PMS5003;58442;52.716;23.560;2023-01-28T07:18:26;48;37;20
70520;PMS5003;58442;52.716;23.560;2023-01-28T07:20:37;49;39;20
70520;PMS5003;58442;52.716;23.560;2023-01-28T07:22:39;24;23;19
70520;PMS5003;58442;52.716;23.560;2023-01-28T07:24:42;45;37;20
70520;PMS5003;58442;52.716;23.560;2023-01-28T07:28:55;47;39;19
70520;PMS5003;58442;52.716;23.560;2023-01-28T07:31:01;47;38;20
70520;PMS5003;58442;52.716;23.560;2023-01-28T07:33:03;50;41;24
70520;PMS5003;58442;52.716;23.560;2023-01-28T07:35:04;56;38;23
70520;PMS5003;58442;52.716;23.560;2023-01-28T07:37:08;49;40;24
70520;PMS5003;58442;52.716;23.560;2023-01-28T07:39:09;51;39;21
70520;PMS5003;58442;52.716;23.560;2023-01-28T07:41:11;54;41;23
70520;PMS5003;58442;52.716;23.560;2023-01-28T07:43:13;60;44;23
70520;PMS5003;58442;52.716;23.560;2023-01-28T07:45:23;56;42;22
70520;PMS5003;58442;52.716;23.560;2023-01-28T07:49:33;49;37;20
70520;PMS5003;58442;52.716;23.560;2023-01-28T07:51:37;60;39;23
70520;PMS5003;58442;52.716;23.560;2023-01-28T07:53:39;55;41;24
70520;PMS5003;58442;52.716;23.560;2023-01-28T07:55:40;55;38;20
70520;PMS5003;58442;52.716;23.560;2023-01-28T07:59:53;47;38;18
70520;PMS5003;58442;52.716;23.560;2023-01-28T08:04:01;34;29;20
70520;PMS5003;58442;52.716;23.560;2023-01-28T08:06:05;51;41;23
70520;PMS5003;58442;52.716;23.560;2023-01-28T08:08:07;30;26;16
70520;PMS5003;58442;52.716;23.560;2023-01-28T08:10:14;37;28;19
70520;PMS5003;58442;52.716;23.560;2023-01-28T08:12:16;45;38;22
70520;PMS5003;58442;52.716;23.560;2023-01-28T08:14:20;47;39;21
70520;PMS5003;58442;52.716;23.560;2023-01-28T08:16:22;48;37;21
70520;PMS5003;58442;52.716;23.560;2023-01-28T08:18:25;45;37;22
70520;PMS5003;58442;52.716;23.560;2023-01-28T08:20:27;53;39;21
70520;PMS5003;58442;52.716;23.560;2023-01-28T08:22:29;40;34;18
70520;PMS5003;58442;52.716;23.560;2023-01-28T08:24:33;47;38;20
70520;PMS5003;58442;52.716;23.560;2023-01-28T08:26:40;40;35;20
70520;PMS5003;58442;52.716;23.560;2023-01-28T08:28:44;40;34;20
70520;PMS5003;58442;52.716;23.560;2023-01-28T08:30:45;48;39;22
70520;PMS5003;58442;52.716;23.560;2023-01-28T08:32:47;43;37;21
70520;PMS5003;58442;52.716;23.560;2023-01-28T08:34:55;47;31;19
70520;PMS5003;58442;52.716;23.560;2023-01-28T08:36:57;47;38;21
70520;PMS5003;58442;52.716;23.560;2023-01-28T08:38:58;44;36;18
70520;PMS5003;58442;52.716;23.560;2023-01-28T08:40:59;46;38;19
70520;PMS5003;58442;52.716;23.560;2023-01-28T08:43:10;41;33;19
70520;PMS5003;58442;52.716;23.560;2023-01-28T08:45:12;38;33;18
70520;PMS5003;58442;52.716;23.560;2023-01-28T08:47:14;42;36;19
70520;PMS5003;58442;52.716;23.560;2023-01-28T08:49:15;37;33;15
70520;PMS5003;58442;52.716;23.560;2023-01-28T08:51:25;38;33;17
70520;PMS5003;58442;52.716;23.560;2023-01-28T08:53:27;45;36;20
70520;PMS5003;58442;52.716;23.560;2023-01-28T08:55:28;43;32;17
70520;PMS5003;58442;52.716;23.560;2023-01-28T08:57:30;37;32;19
70520;PMS5003;58442;52.716;23.560;2023-01-28T08:59:43;35;31;18
70520;PMS5003;58442;52.716;23.560;2023-01-28T09:01:47;39;32;19
70520;PMS5003;58442;52.716;23.560;2023-01-28T09:03:48;45;37;20
70520;PMS5003;58442;52.716;23.560;2023-01-28T09:05:49;28;28;15
70520;PMS5003;58442;52.716;23.560;2023-01-28T09:07:55;33;30;15
70520;PMS5003;58442;52.716;23.560;2023-01-28T09:10:00;29;27;16
70520;PMS5003;58442;52.716;23.560;2023-01-28T09:12:01;40;33;19
70520;PMS5003;58442;52.716;23.560;2023-01-28T09:14:02;42;34;18
70520;PMS5003;58442;52.716;23.560;2023-01-28T09:16:10;43;35;19
70520;PMS5003;58442;52.716;23.560;2023-01-28T09:18:14;37;33;18
70520;PMS5003;58442;52.716;23.560;2023-01-28T09:20:16;35;30;18
70520;PMS5003;58442;52.716;23.560;2023-01-28T09:24:26;24;23;15
70520;PMS5003;58442;52.716;23.560;2023-01-28T09:26:27;30;27;15
70520;PMS5003;58442;52.716;23.560;2023-01-28T09:28:31;37;30;18
70520;PMS5003;58442;52.716;23.560;2023-01-28T09:30:34;24;23;12
70520;PMS5003;58442;52.716;23.560;2023-01-28T09:32:41;30;29;15
70520;PMS5003;58442;52.716;23.560;2023-01-28T09:34:43;21;20;10
70520;PMS5003;58442;52.716;23.560;2023-01-28T09:36:44;24;21;11
70520;PMS5003;58442;52.716;23.560;2023-01-28T09:38:48;22;21;12
70520;PMS5003;58442;52.716;23.560;2023-01-28T09:40:56;29;23;15
70520;PMS5003;58442;52.716;23.560;2023-01-28T09:45:15;37;28;14
70520;PMS5003;58442;52.716;23.560;2023-01-28T09:47:29;37;31;18
70520;PMS5003;58442;52.716;23.560;2023-01-28T09:49:39;35;31;16
70520;PMS5003;58442;52.716;23.560;2023-01-28T09:51:46;25;23;14
70520;PMS5003;58442;52.716;23.560;2023-01-28T09:56:24;35;32;17
70520;PMS5003;58442;52.716;23.560;2023-01-28T09:58:42;30;29;17
70520;PMS5003;58442;52.716;23.560;2023-01-28T10:00:49;38;32;18
70520;PMS5003;58442;52.716;23.560;2023-01-28T10:05:15;33;30;17
70520;PMS5003;58442;52.716;23.560;2023-01-28T10:07:28;34;32;21
70520;PMS5003;58442;52.716;23.560;2023-01-28T10:12:02;28;25;14
70520;PMS5003;58442;52.716;23.560;2023-01-28T10:18:55;46;38;22
70520;PMS5003;58442;52.716;23.560;2023-01-28T10:21:17;32;28;17
70520;PMS5003;58442;52.716;23.560;2023-01-28T10:25:58;36;32;18
70520;PMS5003;58442;52.716;23.560;2023-01-28T10:28:04;26;25;14
70520;PMS5003;58442;52.716;23.560;2023-01-28T10:30:21;29;23;14
70520;PMS5003;58442;52.716;23.560;2023-01-28T10:32:27;27;26;14
70520;PMS5003;58442;52.716;23.560;2023-01-28T10:34:30;31;29;16
70520;PMS5003;58442;52.716;23.560;2023-01-28T10:36:42;37;30;16
70520;PMS5003;58442;52.716;23.560;2023-01-28T10:38:44;29;28;14
70520;PMS5003;58442;52.716;23.560;2023-01-28T10:40:46;28;27;15
70520;PMS5003;58442;52.716;23.560;2023-01-28T10:42:48;29;27;16
70520;PMS5003;58442;52.716;23.560;2023-01-28T10:47:22;32;32;17
70520;PMS5003;58442;52.716;23.560;2023-01-28T10:49:41;29;27;13
70520;PMS5003;58442;52.716;23.560;2023-01-28T10:51:47;26;26;13
70520;PMS5003;58442;52.716;23.560;2023-01-28T10:53:48;29;27;17
70520;PMS5003;58442;52.716;23.560;2023-01-28T10:55:51;34;31;16
70520;PMS5003;58442;52.716;23.560;2023-01-28T10:57:58;44;34;18
70520;PMS5003;58442;52.716;23.560;2023-01-28T11:00:21;39;34;17
70520;PMS5003;58442;52.716;23.560;2023-01-28T11:02:29;34;30;18
70520;PMS5003;58442;52.716;23.560;2023-01-28T11:04:35;34;32;17
70520;PMS5003;58442;52.716;23.560;2023-01-28T11:06:36;28;27;15
70520;PMS5003;58442;52.716;23.560;2023-01-28T11:08:43;29;29;15
70520;PMS5003;58442;52.716;23.560;2023-01-28T11:10:46;27;26;14
70520;PMS5003;58442;52.716;23.560;2023-01-28T11:12:53;18;18;7
70520;PMS5003;58442;52.716;23.560;2023-01-28T11:15:03;16;15;7
70520;PMS5003;58442;52.716;23.560;2023-01-28T11:17:10;45;33;19
70520;PMS5003;58442;52.716;23.560;2023-01-28T11:19:17;33;29;13
70520;PMS5003;58442;52.716;23.560;2023-01-28T11:21:20;35;32;17
70520;PMS5003;58442;52.716;23.560;2023-01-28T11:23:28;31;30;17
70520;PMS5003;58442;52.716;23.560;2023-01-28T11:25:34;36;33;16
70520;PMS5003;58442;52.716;23.560;2023-01-28T11:27:37;30;26;14
70520;PMS5003;58442;52.716;23.560;2023-01-28T11:29:40;30;27;13
70520;PMS5003;58442;52.716;23.560;2023-01-28T11:31:44;23;23;15
70520;PMS5003;58442;52.716;23.560;2023-01-28T11:38:18;29;21;10
70520;PMS5003;58442;52.716;23.560;2023-01-28T11:40:29;27;23;11
70520;PMS5003;58442;52.716;23.560;2023-01-28T11:42:30;22;19;10
70520;PMS5003;58442;52.716;23.560;2023-01-28T11:44:32;20;18;7
70520;PMS5003;58442;52.716;23.560;2023-01-28T12:02:54;34;28;15
70520;PMS5003;58442;52.716;23.560;2023-01-28T12:07:47;31;28;15
70520;PMS5003;58442;52.716;23.560;2023-01-28T12:09:59;24;23;14
70520;PMS5003;58442;52.716;23.560;2023-01-28T12:14:26;21;18;8
70520;PMS5003;58442;52.716;23.560;2023-01-28T12:16:42;24;20;11
70520;PMS5003;58442;52.716;23.560;2023-01-28T12:39:41;17;14;7
70520;PMS5003;58442;52.716;23.560;2023-01-28T12:42:04;16;13;7
70520;PMS5003;58442;52.716;23.560;2023-01-28T12:44:25;15;13;9
70520;PMS5003;58442;52.716;23.560;2023-01-28T12:51:31;16;16;10
70520;PMS5003;58442;52.716;23.560;2023-01-28T12:58:36;5;5;2
70520;PMS5003;58442;52.716;23.560;2023-01-28T13:00:51;8;8;4
70520;PMS5003;58442;52.716;23.560;2023-01-28T13:05:17;8;8;3
70520;PMS5003;58442;52.716;23.560;2023-01-28T13:11:47;11;11;8
70520;PMS5003;58442;52.716;23.560;2023-01-28T13:14:01;16;12;8
70520;PMS5003;58442;52.716;23.560;2023-01-28T13:20:48;19;19;10
70520;PMS5003;58442;52.716;23.560;2023-01-28T13:22:42;12;11;7
70520;PMS5003;58442;52.716;23.560;2023-01-28T13:24:45;12;12;7
70520;PMS5003;58442;52.716;23.560;2023-01-28T13:31:14;14;14;7
70520;PMS5003;58442;52.716;23.560;2023-01-28T13:35:31;13;13;8
70520;PMS5003;58442;52.716;23.560;2023-01-28T13:37:44;13;13;9
70520;PMS5003;58442;52.716;23.560;2023-01-28T13:39:48;18;15;9
70520;PMS5003;58442;52.716;23.560;2023-01-28T13:48:30;14;14;8
70520;PMS5003;58442;52.716;23.560;2023-01-28T13:50:48;12;12;8
70520;PMS5003;58442;52.716;23.560;2023-01-28T13:52:58;15;14;8
70520;PMS5003;58442;52.716;23.560;2023-01-28T13:55:05;17;14;7
70520;PMS5003;58442;52.716;23.560;2023-01-28T14:06:21;12;11;6
70520;PMS5003;58442;52.716;23.560;2023-01-28T14:13:20;16;15;9
70520;PMS5003;58442;52.716;23.560;2023-01-28T14:17:59;14;13;7
70520;PMS5003;58442;52.716;23.560;2023-01-28T14:20:02;9;9;6
70520;PMS5003;58442;52.716;23.560;2023-01-28T14:22:08;14;11;7
70520;PMS5003;58442;52.716;23.560;2023-01-28T14:24:14;12;12;7
70520;PMS5003;58442;52.716;23.560;2023-01-28T14:28:39;9;9;6
70520;PMS5003;58442;52.716;23.560;2023-01-28T14:31:07;11;10;6
70520;PMS5003;58442;52.716;23.560;2023-01-28T14:33:19;9;9;5
70520;PMS5003;58442;52.716;23.560;2023-01-28T14:37:33;8;8;3
70520;PMS5003;58442;52.716;23.560;2023-01-28T14:41:48;8;8;7
70520;PMS5003;58442;52.716;23.560;2023-01-28T14:43:59;11;10;5
70520;PMS5003;58442;52.716;23.560;2023-01-28T14:46:12;11;11;6
70520;PMS5003;58442;52.716;23.560;2023-01-28T14:48:19;9;8;2
70520;PMS5003;58442;52.716;23.560;2023-01-28T14:52:47;9;9;5
70520;PMS5003;58442;52.716;23.560;2023-01-28T14:54:57;12;12;6
70520;PMS5003;58442;52.716;23.560;2023-01-28T14:59:23;11;10;6
70520;PMS5003;58442;52.716;23.560;2023-01-28T15:01:31;10;9;3
70520;PMS5003;58442;52.716;23.560;2023-01-28T15:03:32;7;7;4
70520;PMS5003;58442;52.716;23.560;2023-01-28T15:05:35;12;9;4
70520;PMS5003;58442;52.716;23.560;2023-01-28T15:07:37;14;13;7
70520;PMS5003;58442;52.716;23.560;2023-01-28T15:09:43;11;10;6
70520;PMS5003;58442;52.716;23.560;2023-01-28T15:11:49;8;8;6
70520;PMS5003;58442;52.716;23.560;2023-01-28T15:14:01;13;12;6
70520;PMS5003;58442;52.716;23.560;2023-01-28T15:16:03;10;10;6
70520;PMS5003;58442;52.716;23.560;2023-01-28T15:20:35;13;13;5
70520;PMS5003;58442;52.716;23.560;2023-01-28T15:22:41;10;10;5
70520;PMS5003;58442;52.716;23.560;2023-01-28T15:24:42;7;6;5
70520;PMS5003;58442;52.716;23.560;2023-01-28T15:28:53;7;7;2
70520;PMS5003;58442;52.716;23.560;2023-01-28T15:30:56;10;9;3
70520;PMS5003;58442;52.716;23.560;2023-01-28T15:33:09;11;10;5
70520;PMS5003;58442;52.716;23.560;2023-01-28T15:35:13;8;8;5
70520;PMS5003;58442;52.716;23.560;2023-01-28T15:37:15;12;12;6
70520;PMS5003;58442;52.716;23.560;2023-01-28T15:39:27;13;11;6
70520;PMS5003;58442;52.716;23.560;2023-01-28T15:41:31;15;15;7
70520;PMS5003;58442;52.716;23.560;2023-01-28T15:43:38;10;10;6
70520;PMS5003;58442;52.716;23.560;2023-01-28T15:45:43;5;5;4
70520;PMS5003;58442;52.716;23.560;2023-01-28T15:47:49;10;10;5
70520;PMS5003;58442;52.716;23.560;2023-01-28T15:50:05;12;10;6
70520;PMS5003;58442;52.716;23.560;2023-01-28T15:52:43;10;10;7
70520;PMS5003;58442;52.716;23.560;2023-01-28T15:54:50;18;15;7
70520;PMS5003;58442;52.716;23.560;2023-01-28T15:56:52;16;16;9
70520;PMS5003;58442;52.716;23.560;2023-01-28T15:59:07;14;13;8
70520;PMS5003;58442;52.716;23.560;2023-01-28T16:01:12;18;13;6
70520;PMS5003;58442;52.716;23.560;2023-01-28T16:03:17;14;14;9
70520;PMS5003;58442;52.716;23.560;2023-01-28T16:05:26;11;9;6
70520;PMS5003;58442;52.716;23.560;2023-01-28T16:07:41;7;6;5
70520;PMS5003;58442;52.716;23.560;2023-01-28T16:09:45;9;9;5
70520;PMS5003;58442;52.716;23.560;2023-01-28T16:11:52;14;14;6
70520;PMS5003;58442;52.716;23.560;2023-01-28T16:14:00;15;15;7
70520;PMS5003;58442;52.716;23.560;2023-01-28T16:16:10;10;10;6
70520;PMS5003;58442;52.716;23.560;2023-01-28T16:20:26;11;11;6
70520;PMS5003;58442;52.716;23.560;2023-01-28T16:24:42;7;7;5
70520;PMS5003;58442;52.716;23.560;2023-01-28T16:26:55;10;9;6
70520;PMS5003;58442;52.716;23.560;2023-01-28T16:29:14;3;3;2
70520;PMS5003;58442;52.716;23.560;2023-01-28T16:31:16;6;6;4
70520;PMS5003;58442;52.716;23.560;2023-01-28T16:33:19;10;8;4
70520;PMS5003;58442;52.716;23.560;2023-01-28T16:35:27;5;5;3
70520;PMS5003;58442;52.716;23.560;2023-01-28T16:37:32;7;7;4
70520;PMS5003;58442;52.716;23.560;2023-01-28T16:39:33;6;6;3
70520;PMS5003;58442;52.716;23.560;2023-01-28T16:41:38;6;6;4
70520;PMS5003;58442;52.716;23.560;2023-01-28T16:43:42;8;8;4
70520;PMS5003;58442;52.716;23.560;2023-01-28T16:45:44;3;3;3
70520;PMS5003;58442;52.716;23.560;2023-01-28T16:47:46;6;6;4
70520;PMS5003;58442;52.716;23.560;2023-01-28T16:49:47;7;7;3
70520;PMS5003;58442;52.716;23.560;2023-01-28T16:51:48;8;8;4
70520;PMS5003;58442;52.716;23.560;2023-01-28T16:53:58;6;6;4
70520;PMS5003;58442;52.716;23.560;2023-01-28T16:56:05;10;10;5
70520;PMS5003;58442;52.716;23.560;2023-01-28T16:58:10;10;9;6
70520;PMS5003;58442;52.716;23.560;2023-01-28T17:00:16;13;11;6
70520;PMS5003;58442;52.716;23.560;2023-01-28T17:02:19;14;13;4
70520;PMS5003;58442;52.716;23.560;2023-01-28T17:04:20;7;5;3
70520;PMS5003;58442;52.716;23.560;2023-01-28T17:06:22;7;6;5
70520;PMS5003;58442;52.716;23.560;2023-01-28T17:08:23;9;9;4
70520;PMS5003;58442;52.716;23.560;2023-01-28T17:10:29;11;11;5
70520;PMS5003;58442;52.716;23.560;2023-01-28T17:12:33;14;11;4
70520;PMS5003;58442;52.716;23.560;2023-01-28T17:16:42;8;6;3
70520;PMS5003;58442;52.716;23.560;2023-01-28T17:18:48;5;5;3
70520;PMS5003;58442;52.716;23.560;2023-01-28T17:20:50;5;5;3